CES6550 ZSHC-ZSPD
Flight info
| Callsign | CES6550 |
|---|---|
| Flight time | 0h 44m |
| Altitude | 14800 |
| Route | DSH W505 SUPAR B221 AND G204 DADAT |
| Aircraft | A320/M-SDE3FGHIRWY/LB1 |
Departure
| Time | 2026-05-04 13:43 |
|---|---|
| Airport | Hangzhou Xiaoshan International Airport (ZSHC) |
Arrival
| Time | 2026-05-04 14:27 |
|---|---|
| Airport | Shanghai Pudong International Airport (ZSPD) |
| Time | Latitude | Longitude | Altitude | Speed | Heading |
|---|---|---|---|---|---|
| 2026-05-04 13:10 | 30.23935 | 120.42537 | 32 ft | 0 kts | 234° |
| 2026-05-04 13:29 | 30.23947 | 120.42560 | 31 ft | 4 kts | 254° |
| 2026-05-04 13:29 | 30.23948 | 120.42588 | 30 ft | 4 kts | 294° |
| 2026-05-04 13:29 | 30.23933 | 120.42610 | 30 ft | 3 kts | 332° |
| 2026-05-04 13:30 | 30.23930 | 120.42612 | 29 ft | 0 kts | 333° |
| 2026-05-04 13:33 | 30.23942 | 120.42605 | 30 ft | 9 kts | 333° |
| 2026-05-04 13:34 | 30.24051 | 120.42542 | 32 ft | 21 kts | 334° |
| 2026-05-04 13:34 | 30.24170 | 120.42484 | 32 ft | 17 kts | 347° |
| 2026-05-04 13:34 | 30.24268 | 120.42434 | 31 ft | 15 kts | 333° |
| 2026-05-04 13:34 | 30.24345 | 120.42451 | 32 ft | 14 kts | 54° |
| 2026-05-04 13:35 | 30.24407 | 120.42591 | 31 ft | 22 kts | 63° |
| 2026-05-04 13:35 | 30.24558 | 120.42932 | 32 ft | 26 kts | 63° |
| 2026-05-04 13:35 | 30.24642 | 120.43121 | 32 ft | 27 kts | 62° |
| 2026-05-04 13:36 | 30.24713 | 120.43283 | 32 ft | 16 kts | 65° |
| 2026-05-04 13:36 | 30.24665 | 120.43373 | 32 ft | 16 kts | 154° |
| 2026-05-04 13:36 | 30.24557 | 120.43436 | 32 ft | 19 kts | 153° |
| 2026-05-04 13:36 | 30.24420 | 120.43516 | 31 ft | 26 kts | 153° |
| 2026-05-04 13:37 | 30.24243 | 120.43620 | 31 ft | 32 kts | 153° |
| 2026-05-04 13:37 | 30.24058 | 120.43729 | 32 ft | 30 kts | 153° |
| 2026-05-04 13:37 | 30.23869 | 120.43840 | 32 ft | 31 kts | 154° |
| 2026-05-04 13:37 | 30.23739 | 120.43916 | 31 ft | 32 kts | 153° |
| 2026-05-04 13:38 | 30.23546 | 120.44030 | 32 ft | 4 kts | 151° |
| 2026-05-04 13:38 | 30.23545 | 120.44030 | 32 ft | 0 kts | 151° |
| 2026-05-04 13:38 | 30.23520 | 120.44047 | 32 ft | 14 kts | 150° |
| 2026-05-04 13:39 | 30.23452 | 120.44135 | 32 ft | 7 kts | 66° |
| 2026-05-04 13:39 | 30.23490 | 120.44224 | 32 ft | 20 kts | 63° |
| 2026-05-04 13:39 | 30.23570 | 120.44405 | 32 ft | 28 kts | 63° |
| 2026-05-04 13:39 | 30.23665 | 120.44622 | 32 ft | 29 kts | 63° |
| 2026-05-04 13:40 | 30.23755 | 120.44825 | 32 ft | 28 kts | 63° |
| 2026-05-04 13:40 | 30.23818 | 120.44970 | 32 ft | 13 kts | 72° |
| 2026-05-04 13:40 | 30.23760 | 120.45047 | 31 ft | 16 kts | 153° |
| 2026-05-04 13:40 | 30.23680 | 120.45072 | 30 ft | 7 kts | 230° |
| 2026-05-04 13:41 | 30.23648 | 120.45013 | 30 ft | 10 kts | 244° |
| 2026-05-04 13:41 | 30.23646 | 120.45008 | 30 ft | 0 kts | 244° |
| 2026-05-04 13:42 | 30.23626 | 120.44960 | 30 ft | 28 kts | 243° |
| 2026-05-04 13:42 | 30.23421 | 120.44499 | 33 ft | 97 kts | 243° |
| 2026-05-04 13:42 | 30.23030 | 120.43618 | 35 ft | 146 kts | 243° |
| 2026-05-04 13:42 | 30.22505 | 120.42448 | 159 ft | 173 kts | 242° |
| 2026-05-04 13:43 | 30.21950 | 120.41224 | 775 ft | 172 kts | 235° |
| 2026-05-04 13:43 | 30.21206 | 120.40155 | 1426 ft | 170 kts | 225° |
| 2026-05-04 13:43 | 30.20394 | 120.39170 | 2042 ft | 169 kts | 223° |
| 2026-05-04 13:43 | 30.19592 | 120.38209 | 2637 ft | 168 kts | 224° |
| 2026-05-04 13:44 | 30.18745 | 120.37185 | 2974 ft | 187 kts | 225° |
| 2026-05-04 13:44 | 30.17797 | 120.36028 | 3228 ft | 210 kts | 225° |
| 2026-05-04 13:44 | 30.16756 | 120.34742 | 3561 ft | 230 kts | 226° |
| 2026-05-04 13:44 | 30.15640 | 120.33350 | 4235 ft | 240 kts | 227° |
| 2026-05-04 13:45 | 30.14502 | 120.31920 | 5077 ft | 244 kts | 228° |
| 2026-05-04 13:45 | 30.13734 | 120.30951 | 5622 ft | 248 kts | 229° |
| 2026-05-04 13:45 | 30.12154 | 120.28953 | 6621 ft | 258 kts | 229° |
| 2026-05-04 13:45 | 30.11350 | 120.27937 | 6790 ft | 259 kts | 229° |
| 2026-05-04 13:46 | 30.10133 | 120.26399 | 6887 ft | 259 kts | 229° |
| 2026-05-04 13:46 | 30.08854 | 120.24938 | 6909 ft | 260 kts | 216° |
| 2026-05-04 13:46 | 30.07203 | 120.24117 | 6913 ft | 261 kts | 189° |
| 2026-05-04 13:46 | 30.05404 | 120.24201 | 6913 ft | 261 kts | 163° |
| 2026-05-04 13:47 | 30.03743 | 120.25057 | 6911 ft | 262 kts | 152° |
| 2026-05-04 13:47 | 30.02162 | 120.26095 | 6912 ft | 262 kts | 140° |
| 2026-05-04 13:47 | 30.01085 | 120.27746 | 6914 ft | 259 kts | 109° |
| 2026-05-04 13:47 | 30.00860 | 120.29826 | 6915 ft | 272 kts | 79° |
| 2026-05-04 13:48 | 30.01533 | 120.31872 | 6914 ft | 276 kts | 61° |
| 2026-05-04 13:48 | 30.02421 | 120.33848 | 6912 ft | 278 kts | 61° |
| 2026-05-04 13:48 | 30.03313 | 120.35825 | 6913 ft | 278 kts | 61° |
| 2026-05-04 13:48 | 30.04206 | 120.37807 | 6913 ft | 278 kts | 61° |
| 2026-05-04 13:49 | 30.05096 | 120.39787 | 6912 ft | 278 kts | 61° |
| 2026-05-04 13:49 | 30.05985 | 120.41771 | 6918 ft | 278 kts | 61° |
| 2026-05-04 13:49 | 30.06868 | 120.43751 | 6918 ft | 278 kts | 62° |
| 2026-05-04 13:49 | 30.07750 | 120.45734 | 6918 ft | 278 kts | 62° |
| 2026-05-04 13:50 | 30.08631 | 120.47719 | 6915 ft | 278 kts | 62° |
| 2026-05-04 13:50 | 30.09512 | 120.49704 | 6915 ft | 278 kts | 62° |
| 2026-05-04 13:50 | 30.10393 | 120.51692 | 6914 ft | 278 kts | 62° |
| 2026-05-04 13:50 | 30.11271 | 120.53680 | 6915 ft | 278 kts | 63° |
| 2026-05-04 13:51 | 30.11866 | 120.55802 | 6911 ft | 280 kts | 80° |
| 2026-05-04 13:51 | 30.11887 | 120.58052 | 6911 ft | 281 kts | 97° |
| 2026-05-04 13:51 | 30.11338 | 120.60217 | 6914 ft | 282 kts | 111° |
| 2026-05-04 13:51 | 30.10594 | 120.62316 | 6915 ft | 283 kts | 111° |
| 2026-05-04 13:52 | 30.09125 | 120.66500 | 6917 ft | 283 kts | 111° |
| 2026-05-04 13:52 | 30.08387 | 120.68607 | 6918 ft | 283 kts | 111° |
| 2026-05-04 13:52 | 30.07635 | 120.70743 | 6919 ft | 283 kts | 111° |
| 2026-05-04 13:53 | 30.06893 | 120.72848 | 6922 ft | 283 kts | 111° |
| 2026-05-04 13:53 | 30.06157 | 120.74930 | 6920 ft | 283 kts | 111° |
| 2026-05-04 13:53 | 30.05412 | 120.77032 | 6924 ft | 283 kts | 111° |
| 2026-05-04 13:54 | 30.03922 | 120.81242 | 6924 ft | 283 kts | 111° |
| 2026-05-04 13:54 | 30.03283 | 120.83391 | 6925 ft | 282 kts | 99° |
| 2026-05-04 13:54 | 30.03731 | 120.87784 | 6921 ft | 278 kts | 63° |
| 2026-05-04 13:55 | 30.04772 | 120.89645 | 6923 ft | 276 kts | 52° |
| 2026-05-04 13:55 | 30.07067 | 120.93212 | 6918 ft | 277 kts | 52° |
| 2026-05-04 13:55 | 30.08214 | 120.95004 | 6918 ft | 277 kts | 52° |
| 2026-05-04 13:56 | 30.09359 | 120.96796 | 6915 ft | 277 kts | 52° |
| 2026-05-04 13:56 | 30.10505 | 120.98584 | 6917 ft | 277 kts | 52° |
| 2026-05-04 13:56 | 30.12791 | 121.02125 | 6919 ft | 277 kts | 52° |
| 2026-05-04 13:57 | 30.13942 | 121.03906 | 6919 ft | 276 kts | 52° |
| 2026-05-04 13:57 | 30.15089 | 121.05688 | 6922 ft | 276 kts | 52° |
| 2026-05-04 13:58 | 30.18519 | 121.11030 | 6922 ft | 276 kts | 52° |
| 2026-05-04 13:58 | 30.20815 | 121.14592 | 6918 ft | 276 kts | 52° |
| 2026-05-04 13:58 | 30.21961 | 121.16375 | 6919 ft | 277 kts | 52° |
| 2026-05-04 13:59 | 30.23106 | 121.18163 | 6917 ft | 277 kts | 52° |
| 2026-05-04 13:59 | 30.24252 | 121.19954 | 6921 ft | 277 kts | 52° |
| 2026-05-04 13:59 | 30.26517 | 121.23558 | 6919 ft | 277 kts | 54° |
| 2026-05-04 14:00 | 30.27590 | 121.25413 | 6911 ft | 277 kts | 55° |
| 2026-05-04 14:00 | 30.29693 | 121.29154 | 6918 ft | 277 kts | 55° |
| 2026-05-04 14:00 | 30.30743 | 121.31024 | 6918 ft | 277 kts | 55° |
| 2026-05-04 14:01 | 30.31797 | 121.32893 | 6917 ft | 277 kts | 55° |
| 2026-05-04 14:01 | 30.32852 | 121.34757 | 6920 ft | 277 kts | 55° |
| 2026-05-04 14:01 | 30.34975 | 121.38487 | 6917 ft | 277 kts | 55° |
| 2026-05-04 14:02 | 30.36037 | 121.40349 | 6915 ft | 277 kts | 55° |
| 2026-05-04 14:02 | 30.37085 | 121.42187 | 6923 ft | 277 kts | 54° |
| 2026-05-04 14:02 | 30.38147 | 121.44052 | 6921 ft | 278 kts | 54° |
| 2026-05-04 14:02 | 30.39209 | 121.45919 | 6920 ft | 278 kts | 54° |
| 2026-05-04 14:03 | 30.40268 | 121.47790 | 6917 ft | 278 kts | 54° |
| 2026-05-04 14:03 | 30.41332 | 121.49666 | 6914 ft | 278 kts | 54° |
| 2026-05-04 14:03 | 30.42395 | 121.51544 | 6916 ft | 279 kts | 54° |
| 2026-05-04 14:03 | 30.43457 | 121.53419 | 6923 ft | 278 kts | 54° |
| 2026-05-04 14:04 | 30.45573 | 121.57160 | 6926 ft | 277 kts | 55° |
| 2026-05-04 14:04 | 30.46641 | 121.59013 | 6909 ft | 276 kts | 53° |
| 2026-05-04 14:04 | 30.47739 | 121.60840 | 6884 ft | 276 kts | 52° |
| 2026-05-04 14:05 | 30.49928 | 121.64482 | 6955 ft | 276 kts | 54° |
| 2026-05-04 14:05 | 30.50974 | 121.66349 | 6912 ft | 276 kts | 56° |
| 2026-05-04 14:05 | 30.51992 | 121.68232 | 6896 ft | 275 kts | 57° |
| 2026-05-04 14:06 | 30.52968 | 121.70144 | 6963 ft | 276 kts | 57° |
| 2026-05-04 14:06 | 30.53923 | 121.72080 | 7031 ft | 278 kts | 58° |
| 2026-05-04 14:06 | 30.54903 | 121.74077 | 7125 ft | 286 kts | 58° |
| 2026-05-04 14:06 | 30.55981 | 121.75996 | 6981 ft | 283 kts | 45° |
| 2026-05-04 14:07 | 30.57524 | 121.77331 | 6920 ft | 273 kts | 25° |
| 2026-05-04 14:07 | 30.59285 | 121.78119 | 6922 ft | 270 kts | 13° |
| 2026-05-04 14:07 | 30.61123 | 121.78570 | 6948 ft | 271 kts | 10° |
| 2026-05-04 14:07 | 30.62963 | 121.79027 | 6939 ft | 270 kts | 11° |
| 2026-05-04 14:08 | 30.64802 | 121.79479 | 6914 ft | 270 kts | 10° |
| 2026-05-04 14:08 | 30.66641 | 121.79939 | 6917 ft | 271 kts | 14° |
| 2026-05-04 14:08 | 30.68469 | 121.80475 | 6952 ft | 270 kts | 14° |
| 2026-05-04 14:08 | 30.70283 | 121.81063 | 6953 ft | 272 kts | 14° |
| 2026-05-04 14:09 | 30.73935 | 121.82120 | 6933 ft | 269 kts | 12° |
| 2026-05-04 14:09 | 30.75754 | 121.82636 | 6904 ft | 270 kts | 12° |
| 2026-05-04 14:10 | 30.79402 | 121.83692 | 6848 ft | 269 kts | 12° |
| 2026-05-04 14:10 | 30.81200 | 121.84210 | 6844 ft | 270 kts | 12° |
| 2026-05-04 14:10 | 30.83028 | 121.84739 | 6979 ft | 271 kts | 12° |
| 2026-05-04 14:10 | 30.84869 | 121.85240 | 6969 ft | 271 kts | 11° |
| 2026-05-04 14:11 | 30.86709 | 121.85700 | 7009 ft | 271 kts | 11° |
| 2026-05-04 14:11 | 30.90396 | 121.86610 | 6958 ft | 270 kts | 11° |
| 2026-05-04 14:11 | 30.92232 | 121.87050 | 6897 ft | 269 kts | 5° |
| 2026-05-04 14:12 | 30.94050 | 121.86736 | 6904 ft | 267 kts | 334° |
| 2026-05-04 14:12 | 30.95500 | 121.85403 | 6920 ft | 268 kts | 312° |
| 2026-05-04 14:12 | 30.97930 | 121.82126 | 6959 ft | 267 kts | 318° |
| 2026-05-04 14:13 | 30.99336 | 121.80719 | 6985 ft | 266 kts | 321° |
| 2026-05-04 14:13 | 31.00791 | 121.79371 | 6960 ft | 266 kts | 322° |
| 2026-05-04 14:13 | 31.02256 | 121.78049 | 6955 ft | 267 kts | 323° |
| 2026-05-04 14:13 | 31.03736 | 121.76748 | 6925 ft | 266 kts | 323° |
| 2026-05-04 14:14 | 31.05186 | 121.75412 | 6938 ft | 266 kts | 320° |
| 2026-05-04 14:14 | 31.07979 | 121.72568 | 6922 ft | 266 kts | 318° |
| 2026-05-04 14:14 | 31.09335 | 121.71093 | 6887 ft | 266 kts | 317° |
| 2026-05-04 14:15 | 31.12038 | 121.68127 | 6876 ft | 266 kts | 319° |
| 2026-05-04 14:15 | 31.15298 | 121.66303 | 6473 ft | 262 kts | 344° |
| 2026-05-04 14:16 | 31.18845 | 121.65085 | 6038 ft | 268 kts | 341° |
| 2026-05-04 14:16 | 31.20625 | 121.64415 | 5850 ft | 271 kts | 341° |
| 2026-05-04 14:17 | 31.24203 | 121.63071 | 5430 ft | 266 kts | 342° |
| 2026-05-04 14:17 | 31.25976 | 121.62473 | 5182 ft | 265 kts | 342° |
| 2026-05-04 14:17 | 31.29507 | 121.61253 | 4559 ft | 264 kts | 340° |
| 2026-05-04 14:18 | 31.31256 | 121.60608 | 4291 ft | 262 kts | 340° |
| 2026-05-04 14:18 | 31.34589 | 121.59351 | 4020 ft | 246 kts | 340° |
| 2026-05-04 14:19 | 31.37738 | 121.58196 | 3748 ft | 231 kts | 350° |
| 2026-05-04 14:19 | 31.39298 | 121.58441 | 3587 ft | 231 kts | 26° |
| 2026-05-04 14:19 | 31.40456 | 121.59769 | 3446 ft | 239 kts | 64° |
| 2026-05-04 14:19 | 31.40897 | 121.61609 | 3375 ft | 234 kts | 80° |
| 2026-05-04 14:20 | 31.41226 | 121.63463 | 3257 ft | 231 kts | 79° |
| 2026-05-04 14:20 | 31.41567 | 121.65280 | 3145 ft | 225 kts | 79° |
| 2026-05-04 14:20 | 31.41845 | 121.67085 | 3144 ft | 225 kts | 91° |
| 2026-05-04 14:21 | 31.40361 | 121.69857 | 2994 ft | 199 kts | 168° |
| 2026-05-04 14:21 | 31.39032 | 121.69812 | 2838 ft | 191 kts | 196° |
| 2026-05-04 14:21 | 31.37739 | 121.69647 | 2962 ft | 184 kts | 169° |
| 2026-05-04 14:21 | 31.36616 | 121.70314 | 3032 ft | 180 kts | 152° |
| 2026-05-04 14:22 | 31.35499 | 121.70846 | 3076 ft | 167 kts | 171° |
| 2026-05-04 14:22 | 31.34448 | 121.71178 | 3180 ft | 155 kts | 166° |
| 2026-05-04 14:22 | 31.33392 | 121.71553 | 3161 ft | 158 kts | 166° |
| 2026-05-04 14:22 | 31.32344 | 121.71951 | 3195 ft | 159 kts | 166° |
| 2026-05-04 14:23 | 31.30186 | 121.72779 | 3126 ft | 169 kts | 165° |
| 2026-05-04 14:23 | 31.29050 | 121.73211 | 2868 ft | 172 kts | 166° |
| 2026-05-04 14:23 | 31.27909 | 121.73635 | 2607 ft | 171 kts | 165° |
| 2026-05-04 14:24 | 31.26798 | 121.74049 | 2339 ft | 163 kts | 165° |
| 2026-05-04 14:24 | 31.25732 | 121.74455 | 2120 ft | 160 kts | 165° |
| 2026-05-04 14:24 | 31.24666 | 121.74859 | 1912 ft | 163 kts | 165° |
| 2026-05-04 14:24 | 31.23588 | 121.75269 | 1739 ft | 162 kts | 165° |
| 2026-05-04 14:25 | 31.22521 | 121.75682 | 1499 ft | 161 kts | 165° |
| 2026-05-04 14:25 | 31.20399 | 121.76489 | 1053 ft | 159 kts | 163° |
| 2026-05-04 14:25 | 31.19355 | 121.76884 | 844 ft | 159 kts | 162° |
| 2026-05-04 14:26 | 31.18296 | 121.77281 | 652 ft | 162 kts | 162° |
| 2026-05-04 14:26 | 31.17219 | 121.77691 | 456 ft | 162 kts | 162° |
| 2026-05-04 14:26 | 31.16153 | 121.78088 | 241 ft | 161 kts | 162° |
| 2026-05-04 14:26 | 31.15078 | 121.78486 | 41 ft | 160 kts | 162° |
| 2026-05-04 14:27 | 31.14172 | 121.78830 | 23 ft | 95 kts | 162° |
| 2026-05-04 14:27 | 31.13825 | 121.78961 | 23 ft | 40 kts | 162° |
| 2026-05-04 14:27 | 31.13594 | 121.79066 | 23 ft | 34 kts | 147° |
| 2026-05-04 14:27 | 31.13484 | 121.79180 | 23 ft | 0 kts | 133° |
| 2026-05-04 14:28 | 31.13478 | 121.79189 | 23 ft | 4 kts | 133° |
| 2026-05-04 14:28 | 31.13423 | 121.79256 | 24 ft | 0 kts | 134° |
| 2026-05-04 14:28 | 31.13422 | 121.79257 | 24 ft | 1 kts | 134° |
| 2026-05-04 14:28 | 31.13373 | 121.79314 | 26 ft | 17 kts | 137° |
| 2026-05-04 14:29 | 31.13350 | 121.79532 | 23 ft | 18 kts | 72° |
| 2026-05-04 14:29 | 31.13445 | 121.79816 | 22 ft | 13 kts | 28° |
| 2026-05-04 14:30 | 31.13538 | 121.79795 | 23 ft | 15 kts | 342° |
| 2026-05-04 14:30 | 31.13645 | 121.79754 | 23 ft | 17 kts | 341° |
| 2026-05-04 14:30 | 31.13878 | 121.79666 | 23 ft | 19 kts | 341° |
| 2026-05-04 14:31 | 31.14016 | 121.79613 | 23 ft | 22 kts | 341° |
| 2026-05-04 14:31 | 31.14295 | 121.79509 | 23 ft | 23 kts | 342° |
| 2026-05-04 14:32 | 31.14638 | 121.79379 | 23 ft | 28 kts | 342° |
| 2026-05-04 14:32 | 31.14754 | 121.79336 | 25 ft | 21 kts | 342° |
| 2026-05-04 14:32 | 31.14865 | 121.79320 | 23 ft | 13 kts | 36° |
| 2026-05-04 14:32 | 31.14899 | 121.79429 | 23 ft | 15 kts | 72° |
| 2026-05-04 14:33 | 31.14932 | 121.79548 | 23 ft | 11 kts | 72° |
| 2026-05-04 14:33 | 31.14917 | 121.79609 | 23 ft | 10 kts | 147° |
| 2026-05-04 14:33 | 31.14845 | 121.79638 | 23 ft | 12 kts | 162° |
| 2026-05-04 14:33 | 31.14747 | 121.79675 | 24 ft | 21 kts | 162° |
| 2026-05-04 14:34 | 31.14590 | 121.79734 | 23 ft | 22 kts | 162° |
| 2026-05-04 14:34 | 31.14486 | 121.79773 | 24 ft | 12 kts | 162° |
| 2026-05-04 14:34 | 31.14454 | 121.79853 | 23 ft | 14 kts | 75° |
| 2026-05-04 14:34 | 31.14488 | 121.79973 | 25 ft | 17 kts | 71° |
| 2026-05-04 14:35 | 31.14516 | 121.80077 | 23 ft | 13 kts | 70° |
| 2026-05-04 14:35 | 31.14597 | 121.80101 | 23 ft | 15 kts | 342° |
| 2026-05-04 14:35 | 31.14700 | 121.80062 | 23 ft | 13 kts | 342° |
| 2026-05-04 14:35 | 31.14720 | 121.80027 | 23 ft | 4 kts | 257° |
| 2026-05-04 14:36 | 31.14715 | 121.80010 | 26 ft | 2 kts | 251° |
| 2026-05-04 14:36 | 31.14712 | 121.80000 | 25 ft | 0 kts | 251° |
| 2026-05-04 14:36 | 31.14711 | 121.79996 | 24 ft | 1 kts | 252° |
| 2026-05-04 14:36 | 31.14709 | 121.79991 | 24 ft | 1 kts | 251° |